Time;durP1;ratioP1;P1;durP2;ratioP2;P2;SDS_P1;SDS_P2;PMS_P1;PMS_P2;Temp;Humidity;BMP_temperature;BMP_pressure;BME280_temperature;BME280_humidity;BME280_pressure;Samples;Min_cycle;Max_cycle;Signal;HPM_P1;HPM_P2
2022/01/15 00:01:40;;;;;;;160.33;56.87;;;3.90;99.90;;;;;;5045340;28;20459;-69
2022/01/15 00:04:07;;;;;;;134.37;52.57;;;3.80;99.90;;;;;;5054274;28;20491;-69
2022/01/15 00:06:34;;;;;;;120.77;45.07;;;3.80;99.90;;;;;;5058810;28;20468;-69
2022/01/15 00:09:01;;;;;;;138.43;49.43;;;3.60;99.90;;;;;;5056466;28;20562;-69
2022/01/15 00:11:30;;;;;;;117.60;47.63;;;3.60;99.90;;;;;;5057779;28;20464;-69
2022/01/15 00:14:09;;;;;;;144.93;49.80;;;3.50;99.90;;;;;;5056909;28;20466;-70
2022/01/15 00:16:48;;;;;;;142.37;50.73;;;3.60;99.90;;;;;;5052456;28;20492;-70
2022/01/15 00:19:17;;;;;;;136.93;45.10;;;3.50;99.90;;;;;;5052413;28;20489;-70
2022/01/15 00:21:44;;;;;;;125.93;43.90;;;3.40;99.90;;;;;;5061297;28;20455;-69
2022/01/15 00:24:11;;;;;;;142.13;47.90;;;3.30;99.90;;;;;;5060737;28;20458;-69
2022/01/15 00:26:39;;;;;;;177.00;44.87;;;3.30;99.90;;;;;;5051327;28;20471;-70
2022/01/15 00:29:06;;;;;;;174.83;46.63;;;3.20;99.90;;;;;;5061595;28;20823;-70
2022/01/15 00:31:34;;;;;;;140.13;44.97;;;3.20;99.90;;;;;;5053212;28;20828;-70
2022/01/15 00:34:01;;;;;;;120.10;42.20;;;3.20;99.90;;;;;;5060248;28;20452;-69
2022/01/15 00:36:28;;;;;;;139.53;41.63;;;3.20;99.90;;;;;;5060762;28;20608;-69
2022/01/15 00:38:55;;;;;;;136.57;41.93;;;3.20;99.90;;;;;;5055858;28;20460;-69
2022/01/15 00:41:22;;;;;;;130.20;40.13;;;3.30;99.90;;;;;;5055627;28;20577;-69
2022/01/15 00:43:50;;;;;;;245.23;46.90;;;3.30;99.90;;;;;;5055165;28;20552;-70
2022/01/15 00:46:18;;;;;;;189.93;41.87;;;3.10;99.90;;;;;;5059066;28;20467;-69
2022/01/15 00:48:44;;;;;;;130.93;42.10;;;3.10;99.90;;;;;;5062224;28;20474;-70
2022/01/15 00:51:12;;;;;;;118.50;40.70;;;3.10;99.90;;;;;;5060327;28;20466;-69
2022/01/15 00:53:39;;;;;;;98.40;40.77;;;3.10;99.90;;;;;;5056364;28;20462;-69
2022/01/15 00:56:06;;;;;;;154.40;40.53;;;3.10;99.90;;;;;;5057053;28;20490;-69
2022/01/15 00:58:33;;;;;;;173.87;41.63;;;3.00;99.90;;;;;;5051215;28;20500;-69
2022/01/15 01:01:01;;;;;;;159.63;43.10;;;3.00;99.90;;;;;;5050663;28;20578;-70
2022/01/15 01:03:28;;;;;;;116.13;41.20;;;3.00;99.90;;;;;;5061690;28;20476;-70
2022/01/15 01:05:55;;;;;;;161.83;43.83;;;3.00;99.90;;;;;;5057061;28;20467;-70
2022/01/15 01:08:22;;;;;;;124.10;42.63;;;3.00;99.90;;;;;;5056047;28;20482;-70
2022/01/15 01:10:53;;;;;;;210.40;43.50;;;3.20;99.90;;;;;;5050830;28;20456;-69
2022/01/15 01:20:02;;;;;;;161.30;42.00;;;3.20;99.90;;;;;;5056600;28;20489;-69
2022/01/15 01:24:46;;;;;;;140.03;39.27;;;3.00;99.90;;;;;;5058234;28;20517;-69
2022/01/15 01:27:19;;;;;;;204.23;40.87;;;2.90;99.90;;;;;;5058026;28;20536;-69
2022/01/15 01:30:04;;;;;;;114.20;41.70;;;2.80;99.90;;;;;;5058037;28;20467;-69
2022/01/15 01:32:49;;;;;;;211.70;39.90;;;2.90;99.90;;;;;;5054484;28;20467;-69
2022/01/15 01:35:29;;;;;;;191.63;39.63;;;2.80;99.90;;;;;;5048646;28;20482;-69
2022/01/15 01:37:59;;;;;;;215.67;41.43;;;2.80;99.90;;;;;;5051022;28;20461;-69
2022/01/15 01:40:37;;;;;;;277.33;49.60;;;2.90;99.90;;;;;;5054983;28;20456;-69
2022/01/15 01:43:15;;;;;;;219.40;44.47;;;2.70;99.90;;;;;;5059508;28;20468;-69
2022/01/15 01:45:47;;;;;;;147.37;40.40;;;2.80;99.90;;;;;;5053828;28;20802;-69
2022/01/15 01:48:15;;;;;;;288.43;45.00;;;2.80;99.90;;;;;;5052862;28;20465;-69
2022/01/15 01:50:42;;;;;;;166.53;41.03;;;2.70;99.90;;;;;;5055042;28;20463;-69
2022/01/15 01:53:10;;;;;;;148.93;40.80;;;2.60;99.90;;;;;;5055884;28;22503;-69
2022/01/15 01:55:39;;;;;;;121.80;35.90;;;2.60;99.90;;;;;;5061612;28;21534;-69
2022/01/15 01:58:06;;;;;;;139.77;33.33;;;2.60;99.90;;;;;;5054678;28;20455;-69
2022/01/15 02:00:32;;;;;;;128.17;39.70;;;2.50;99.90;;;;;;5052859;28;20491;-69
2022/01/15 02:03:01;;;;;;;176.07;40.80;;;2.50;99.90;;;;;;5052499;28;20463;-69
2022/01/15 02:05:29;;;;;;;137.53;38.07;;;2.50;99.90;;;;;;5057080;28;20478;-69
2022/01/15 02:07:56;;;;;;;173.97;40.17;;;2.40;99.90;;;;;;5047878;28;20450;-68
2022/01/15 02:10:23;;;;;;;137.07;39.33;;;2.50;99.90;;;;;;5059112;28;20464;-69
2022/01/15 02:12:52;;;;;;;136.07;41.80;;;2.50;99.90;;;;;;5062785;28;20580;-69
2022/01/15 02:15:20;;;;;;;173.63;42.10;;;2.60;99.90;;;;;;5051287;28;22442;-69
2022/01/15 02:17:49;;;;;;;175.67;41.27;;;2.70;99.90;;;;;;5050892;28;20463;-69
2022/01/15 02:23:35;;;;;;;177.23;38.97;;;2.40;99.90;;;;;;5048496;28;20491;-69
2022/01/15 02:26:04;;;;;;;209.00;44.10;;;2.50;99.90;;;;;;5052348;28;20503;-69
2022/01/15 02:28:34;;;;;;;167.23;42.33;;;2.50;99.90;;;;;;5057200;28;20465;-69
2022/01/15 02:31:03;;;;;;;141.17;38.63;;;2.60;99.90;;;;;;5050142;28;20463;-69
2022/01/15 02:33:30;;;;;;;114.53;37.43;;;2.60;99.90;;;;;;5050708;28;20486;-69
2022/01/15 02:36:00;;;;;;;97.17;38.50;;;2.40;99.90;;;;;;5060927;28;20488;-69
2022/01/15 02:38:27;;;;;;;110.17;32.87;;;2.40;99.90;;;;;;5055538;28;20463;-69
2022/01/15 02:40:54;;;;;;;106.53;36.40;;;2.50;99.90;;;;;;5057221;28;20459;-69
2022/01/15 02:43:31;;;;;;;100.80;37.20;;;2.40;99.90;;;;;;5054071;28;20463;-69
2022/01/15 02:46:08;;;;;;;80.57;34.27;;;2.40;99.90;;;;;;5057350;28;20467;-69
2022/01/15 02:48:36;;;;;;;90.90;38.43;;;2.50;99.90;;;;;;5052346;28;20821;-69
2022/01/15 02:51:05;;;;;;;201.17;43.80;;;2.30;99.90;;;;;;5051363;28;20456;-69
2022/01/15 02:53:32;;;;;;;189.73;40.70;;;2.30;99.90;;;;;;5059074;28;20981;-69
2022/01/15 02:55:59;;;;;;;149.70;37.47;;;2.30;99.90;;;;;;5053565;28;20490;-69
2022/01/15 02:58:25;;;;;;;141.97;40.87;;;2.30;99.90;;;;;;5049104;28;20459;-69
2022/01/15 03:00:53;;;;;;;145.90;36.93;;;2.30;99.90;;;;;;5050033;28;20850;-69
2022/01/15 03:03:20;;;;;;;145.50;37.80;;;2.30;99.90;;;;;;5050066;28;20466;-68
2022/01/15 03:05:48;;;;;;;91.40;36.60;;;2.30;99.90;;;;;;5052390;28;20965;-68
2022/01/15 03:08:17;;;;;;;153.97;36.83;;;2.30;99.90;;;;;;5059609;28;20825;-69
2022/01/15 03:10:44;;;;;;;101.47;37.67;;;2.40;99.90;;;;;;5052059;28;20459;-69
2022/01/15 03:13:13;;;;;;;64.20;27.57;;;2.40;99.90;;;;;;5058734;28;21020;-69
2022/01/15 03:15:40;;;;;;;100.63;35.23;;;2.20;99.90;;;;;;5050768;28;21104;-69
2022/01/15 03:18:07;;;;;;;107.93;31.73;;;2.10;99.90;;;;;;5049342;28;20729;-69
2022/01/15 03:20:34;;;;;;;120.37;38.27;;;2.00;99.90;;;;;;5055210;28;20450;-69
2022/01/15 03:23:00;;;;;;;149.07;37.23;;;2.10;99.90;;;;;;5061508;28;20980;-69
2022/01/15 03:25:29;;;;;;;131.50;37.00;;;2.20;99.90;;;;;;5059487;28;20485;-70
2022/01/15 03:27:56;;;;;;;230.13;38.90;;;2.30;99.90;;;;;;5054897;28;20491;-70
2022/01/15 03:30:23;;;;;;;153.53;38.70;;;2.20;99.90;;;;;;5052735;28;20459;-69
2022/01/15 03:32:50;;;;;;;135.93;37.07;;;2.30;99.90;;;;;;5052551;28;20978;-70
2022/01/15 03:35:18;;;;;;;110.70;36.43;;;2.40;99.90;;;;;;5060890;28;20546;-69
2022/01/15 03:37:46;;;;;;;239.60;39.27;;;2.40;99.90;;;;;;5059658;28;20985;-70
2022/01/15 03:40:15;;;;;;;198.87;40.27;;;2.40;99.90;;;;;;5053927;28;20455;-69
2022/01/15 03:42:44;;;;;;;154.10;37.60;;;2.50;99.90;;;;;;5062908;28;20459;-69
2022/01/15 03:45:13;;;;;;;138.87;38.87;;;2.50;99.90;;;;;;5059473;28;20486;-69
2022/01/15 03:47:41;;;;;;;125.23;36.40;;;2.50;99.90;;;;;;5064667;28;20470;-69
2022/01/15 03:50:09;;;;;;;157.33;39.83;;;2.40;99.90;;;;;;5058112;28;20468;-69
2022/01/15 03:52:36;;;;;;;230.03;41.37;;;2.50;99.90;;;;;;5054869;28;20462;-69
2022/01/15 03:55:05;;;;;;;171.33;43.27;;;2.60;99.90;;;;;;5056533;28;20467;-69
2022/01/15 03:57:31;;;;;;;159.47;38.30;;;2.60;99.90;;;;;;5056713;28;20460;-69
2022/01/15 04:00:00;;;;;;;160.77;37.93;;;2.80;99.90;;;;;;5056855;28;20482;-69
2022/01/15 04:02:27;;;;;;;178.83;41.30;;;2.70;99.90;;;;;;5047665;28;20542;-69
2022/01/15 04:04:54;;;;;;;147.97;39.80;;;2.60;99.90;;;;;;5055671;28;20468;-69
2022/01/15 04:07:21;;;;;;;191.57;38.17;;;2.70;99.90;;;;;;5059650;28;20473;-70
2022/01/15 04:09:48;;;;;;;139.70;36.00;;;2.70;99.90;;;;;;5058088;28;20964;-70
2022/01/15 04:12:15;;;;;;;220.80;38.80;;;2.70;99.90;;;;;;5051495;28;20494;-69
2022/01/15 04:14:42;;;;;;;149.37;37.83;;;2.70;99.90;;;;;;5055890;28;20468;-70
2022/01/15 04:17:10;;;;;;;101.03;38.97;;;2.70;99.90;;;;;;5052775;28;21001;-70
2022/01/15 04:19:39;;;;;;;200.53;41.00;;;2.60;99.90;;;;;;5056054;28;20513;-69
2022/01/15 04:22:07;;;;;;;246.53;44.73;;;2.60;99.90;;;;;;5060386;28;21034;-70
2022/01/15 04:24:34;;;;;;;181.73;39.23;;;2.60;99.90;;;;;;5058110;28;20469;-69
2022/01/15 04:27:01;;;;;;;518.00;51.50;;;2.60;99.90;;;;;;5056522;28;20981;-70
2022/01/15 04:29:28;;;;;;;503.40;55.00;;;2.60;99.90;;;;;;5051967;28;20476;-69
2022/01/15 04:31:55;;;;;;;514.20;50.60;;;2.60;99.90;;;;;;5054018;28;20466;-69
2022/01/15 04:34:25;;;;;;;573.90;52.70;;;2.70;99.90;;;;;;5055788;28;20819;-69
2022/01/15 04:36:56;;;;;;;336.60;47.40;;;2.60;99.90;;;;;;5054119;28;21008;-69
2022/01/15 04:39:23;;;;;;;467.17;49.10;;;2.60;99.90;;;;;;5052047;28;20455;-69
2022/01/15 04:41:51;;;;;;;674.13;57.70;;;2.60;99.90;;;;;;5052068;28;20464;-69
2022/01/15 04:44:18;;;;;;;403.30;47.63;;;2.70;99.90;;;;;;5052962;28;20575;-70
2022/01/15 04:46:46;;;;;;;216.70;39.43;;;2.60;99.90;;;;;;5052585;28;20459;-69
2022/01/15 04:49:13;;;;;;;218.30;41.00;;;2.70;99.90;;;;;;5054320;28;20970;-69
2022/01/15 04:51:41;;;;;;;435.87;49.90;;;2.60;99.90;;;;;;5045050;28;20459;-69
2022/01/15 04:54:08;;;;;;;273.20;44.73;;;2.60;99.90;;;;;;5053246;28;20464;-69
2022/01/15 04:56:36;;;;;;;577.10;58.07;;;2.50;99.90;;;;;;5056035;28;21131;-69
2022/01/15 04:59:03;;;;;;;580.03;57.67;;;2.60;99.90;;;;;;5054874;28;21000;-69
2022/01/15 05:01:30;;;;;;;573.03;56.03;;;2.50;99.90;;;;;;5051159;28;20463;-69
2022/01/15 05:03:56;;;;;;;412.17;48.80;;;2.60;99.90;;;;;;5037761;28;20479;-69
2022/01/15 05:06:24;;;;;;;409.43;47.90;;;2.60;99.90;;;;;;5047674;28;20459;-69
2022/01/15 05:09:01;;;;;;;427.40;48.20;;;2.60;99.90;;;;;;5058875;28;20923;-69
2022/01/15 05:11:31;;;;;;;422.33;49.93;;;2.50;99.90;;;;;;5032470;28;20478;-69
2022/01/15 05:13:58;;;;;;;202.30;38.10;;;2.60;99.90;;;;;;5031294;28;21147;-70
2022/01/15 05:16:25;;;;;;;280.03;45.83;;;2.60;99.90;;;;;;5031520;28;20492;-70
2022/01/15 05:18:52;;;;;;;166.00;38.17;;;2.60;99.90;;;;;;5031860;28;20464;-70
2022/01/15 05:21:19;;;;;;;278.53;46.13;;;2.50;99.90;;;;;;5032889;28;21061;-70
2022/01/15 05:23:46;;;;;;;187.63;41.40;;;2.60;99.90;;;;;;5032265;28;20463;-70
2022/01/15 05:26:14;;;;;;;229.17;43.83;;;2.50;99.90;;;;;;5030914;28;20727;-70
2022/01/15 05:28:41;;;;;;;451.13;50.87;;;2.40;99.90;;;;;;5032015;28;20466;-70
2022/01/15 05:31:08;;;;;;;229.40;42.53;;;2.50;99.90;;;;;;5032144;28;20480;-70
2022/01/15 05:33:35;;;;;;;601.60;57.67;;;2.50;99.90;;;;;;5031942;28;20478;-70
2022/01/15 05:36:01;;;;;;;311.83;46.03;;;2.40;99.90;;;;;;5030044;28;20842;-69
2022/01/15 05:38:28;;;;;;;200.27;43.17;;;2.40;99.90;;;;;;5031163;28;20472;-70
2022/01/15 05:40:56;;;;;;;259.70;45.97;;;2.50;99.90;;;;;;5032065;28;20869;-69
2022/01/15 05:43:24;;;;;;;276.50;46.10;;;2.50;99.90;;;;;;5028884;28;20471;-70
2022/01/15 05:45:51;;;;;;;541.33;55.03;;;2.60;99.90;;;;;;5031830;28;20451;-70
2022/01/15 05:48:18;;;;;;;291.90;46.90;;;2.30;99.90;;;;;;5031535;28;20938;-70
2022/01/15 05:50:45;;;;;;;168.77;42.17;;;2.30;99.90;;;;;;5030556;28;20455;-70
2022/01/15 05:53:12;;;;;;;229.93;40.97;;;2.30;99.90;;;;;;5031817;28;20466;-69
2022/01/15 05:55:39;;;;;;;102.03;37.83;;;2.30;99.90;;;;;;5032362;28;21338;-69
2022/01/15 05:58:07;;;;;;;284.13;46.47;;;2.20;99.90;;;;;;5031803;28;20497;-70
2022/01/15 06:00:35;;;;;;;363.50;49.60;;;2.30;99.90;;;;;;5032434;28;20614;-70
2022/01/15 06:03:02;;;;;;;214.20;41.43;;;2.30;99.90;;;;;;5055526;28;21032;-70
2022/01/15 06:05:29;;;;;;;312.43;45.67;;;2.20;99.90;;;;;;5050525;28;20466;-70
2022/01/15 06:07:56;;;;;;;233.70;41.90;;;2.30;99.90;;;;;;5035394;28;20467;-70
2022/01/15 06:10:23;;;;;;;154.77;41.93;;;2.30;99.90;;;;;;5031527;28;20617;-70
2022/01/15 06:12:50;;;;;;;188.87;42.67;;;2.40;99.90;;;;;;5031373;28;20564;-70
2022/01/15 06:15:17;;;;;;;177.07;40.37;;;2.30;99.90;;;;;;5030466;28;20961;-70
2022/01/15 06:17:45;;;;;;;90.67;38.80;;;2.30;99.90;;;;;;5030086;28;20498;-70
2022/01/15 06:20:14;;;;;;;253.03;45.30;;;2.40;99.90;;;;;;5031903;28;20464;-70
2022/01/15 06:22:41;;;;;;;127.60;40.27;;;2.40;99.90;;;;;;5031889;28;20466;-70
2022/01/15 06:25:10;;;;;;;109.90;40.90;;;2.50;99.90;;;;;;5032251;28;20464;-69
2022/01/15 06:27:37;;;;;;;130.90;40.00;;;2.50;99.90;;;;;;5031675;28;20827;-70
2022/01/15 06:30:05;;;;;;;169.80;42.27;;;2.50;99.90;;;;;;5031098;28;20475;-70
2022/01/15 06:32:36;;;;;;;166.83;44.73;;;2.50;99.90;;;;;;5032439;28;20456;-70
2022/01/15 06:35:05;;;;;;;75.90;39.30;;;2.40;99.90;;;;;;5027372;28;20595;-70
2022/01/15 06:37:32;;;;;;;80.07;38.80;;;2.50;99.90;;;;;;5031153;28;20484;-70
2022/01/15 06:39:59;;;;;;;88.93;39.00;;;2.50;99.90;;;;;;5032460;28;20847;-70
2022/01/15 06:42:26;;;;;;;147.40;42.40;;;2.30;99.90;;;;;;5031272;28;20462;-70
2022/01/15 06:44:53;;;;;;;123.13;39.43;;;2.20;99.90;;;;;;5032068;28;20864;-70
2022/01/15 06:47:19;;;;;;;93.50;40.37;;;2.30;99.90;;;;;;5028825;28;20747;-70
2022/01/15 06:49:46;;;;;;;189.97;44.67;;;2.30;99.90;;;;;;5029748;28;20474;-70
2022/01/15 06:52:15;;;;;;;275.63;48.70;;;2.40;99.90;;;;;;5028884;28;20522;-69
2022/01/15 06:54:42;;;;;;;379.30;54.60;;;2.40;99.90;;;;;;5027465;28;20471;-70
2022/01/15 06:57:09;;;;;;;220.80;49.00;;;2.50;99.90;;;;;;5050195;28;20837;-70
2022/01/15 06:59:36;;;;;;;390.80;56.63;;;2.50;99.90;;;;;;5056665;28;20479;-69
2022/01/15 07:02:05;;;;;;;509.17;65.43;;;2.50;99.90;;;;;;5054471;28;20456;-69
2022/01/15 07:04:31;;;;;;;192.20;45.30;;;2.50;99.90;;;;;;5037796;28;20573;-70
2022/01/15 07:06:58;;;;;;;143.90;44.53;;;2.50;99.90;;;;;;5053246;28;20482;-70
2022/01/15 07:09:26;;;;;;;178.00;45.23;;;2.50;99.90;;;;;;5051907;28;20467;-69
2022/01/15 07:11:53;;;;;;;116.80;42.90;;;2.50;99.90;;;;;;5057179;28;20490;-69
2022/01/15 07:14:20;;;;;;;120.10;43.00;;;2.50;99.90;;;;;;5062151;28;20465;-69
2022/01/15 07:16:46;;;;;;;114.37;41.37;;;2.50;99.90;;;;;;5031283;28;20467;-70
2022/01/15 07:19:13;;;;;;;114.37;42.10;;;2.40;99.90;;;;;;5031418;28;20472;-70
2022/01/15 07:21:40;;;;;;;109.50;42.30;;;2.40;99.90;;;;;;5032638;28;21098;-69
2022/01/15 07:24:07;;;;;;;103.90;43.80;;;2.40;99.90;;;;;;5030304;28;20483;-70
2022/01/15 07:26:35;;;;;;;118.43;40.93;;;2.50;99.90;;;;;;5031063;28;20502;-70
2022/01/15 07:29:02;;;;;;;130.70;44.33;;;2.40;99.90;;;;;;5031707;28;20671;-71
2022/01/15 07:31:29;;;;;;;83.20;41.07;;;2.40;99.90;;;;;;5032577;28;20496;-70
2022/01/15 07:33:56;;;;;;;100.10;44.90;;;2.40;99.90;;;;;;5031499;28;21016;-70
2022/01/15 07:36:23;;;;;;;92.87;42.20;;;2.40;99.90;;;;;;5029312;28;20471;-70
2022/01/15 07:38:50;;;;;;;79.03;40.30;;;2.40;99.90;;;;;;5031082;28;20490;-70
2022/01/15 07:41:17;;;;;;;105.93;40.43;;;2.50;99.90;;;;;;5031897;28;20482;-70
2022/01/15 07:43:45;;;;;;;95.10;42.53;;;2.50;99.90;;;;;;5032382;28;20463;-70
2022/01/15 07:46:12;;;;;;;125.27;42.60;;;2.40;99.90;;;;;;5031766;28;21143;-70
2022/01/15 07:48:39;;;;;;;74.93;40.13;;;2.50;99.90;;;;;;5031021;28;20553;-70
2022/01/15 07:51:07;;;;;;;79.33;40.90;;;2.40;99.90;;;;;;5032247;28;20456;-70
2022/01/15 07:53:33;;;;;;;81.27;41.57;;;2.40;99.90;;;;;;5032610;28;20468;-70
2022/01/15 07:56:00;;;;;;;73.30;40.07;;;2.40;99.90;;;;;;5032064;28;20456;-70
2022/01/15 07:58:27;;;;;;;70.20;41.57;;;2.40;99.90;;;;;;5032133;28;20497;-70
2022/01/15 08:00:55;;;;;;;72.93;39.73;;;2.40;99.90;;;;;;5028287;28;20487;-69
2022/01/15 08:03:22;;;;;;;74.77;40.50;;;2.30;99.90;;;;;;5029874;28;20455;-70
2022/01/15 08:05:49;;;;;;;91.37;41.57;;;2.30;99.90;;;;;;5031295;28;20467;-71
2022/01/15 08:08:17;;;;;;;75.80;39.70;;;2.30;99.90;;;;;;5030792;28;20602;-70
2022/01/15 08:10:45;;;;;;;77.03;39.43;;;2.20;99.90;;;;;;5031002;28;20909;-70
2022/01/15 08:13:12;;;;;;;78.17;41.37;;;2.30;99.90;;;;;;5027775;28;21643;-70
2022/01/15 08:15:39;;;;;;;84.83;42.37;;;2.40;99.90;;;;;;5032275;28;20671;-70
2022/01/15 08:18:07;;;;;;;88.43;39.80;;;2.30;99.90;;;;;;5031232;28;21318;-70
2022/01/15 08:20:34;;;;;;;72.20;41.40;;;2.30;99.90;;;;;;5028342;28;20502;-70
2022/01/15 08:23:01;;;;;;;80.33;40.33;;;2.30;99.90;;;;;;5031589;28;21138;-70
2022/01/15 08:25:28;;;;;;;68.13;40.10;;;2.30;99.90;;;;;;5031296;28;20448;-70
2022/01/15 08:27:55;;;;;;;84.07;40.87;;;2.40;99.90;;;;;;5031106;28;20829;-70
2022/01/15 08:30:23;;;;;;;77.30;40.20;;;2.40;99.90;;;;;;5030835;28;20471;-69
2022/01/15 08:32:51;;;;;;;70.03;39.80;;;2.40;99.90;;;;;;5031904;28;20455;-69
2022/01/15 08:35:19;;;;;;;77.53;40.57;;;2.50;99.90;;;;;;5031225;28;20469;-71
2022/01/15 08:37:46;;;;;;;73.13;41.27;;;2.40;99.90;;;;;;5027900;28;20498;-71
2022/01/15 08:40:15;;;;;;;66.07;41.63;;;2.40;99.90;;;;;;5031017;28;20468;-68
2022/01/15 08:42:42;;;;;;;77.73;40.67;;;2.50;99.90;;;;;;5031315;28;20506;-69
2022/01/15 08:45:12;;;;;;;73.60;41.80;;;2.50;99.90;;;;;;5031110;28;20466;-69
2022/01/15 08:47:40;;;;;;;77.10;41.60;;;2.60;99.90;;;;;;5031796;28;20451;-68
2022/01/15 08:50:08;;;;;;;70.10;43.83;;;2.60;99.90;;;;;;5032218;28;20577;-69
2022/01/15 08:52:36;;;;;;;74.40;41.30;;;2.60;99.90;;;;;;5030016;28;20459;-69
2022/01/15 08:55:03;;;;;;;66.97;38.63;;;2.60;99.90;;;;;;5025817;28;21253;-70
2022/01/15 08:57:30;;;;;;;70.07;38.60;;;2.40;99.90;;;;;;5030393;28;20482;-69
2022/01/15 08:59:57;;;;;;;64.30;40.23;;;2.40;99.90;;;;;;5026847;28;20495;-70
2022/01/15 09:02:24;;;;;;;61.47;38.20;;;2.50;99.90;;;;;;5027892;28;21127;-69
2022/01/15 09:04:51;;;;;;;59.93;37.93;;;2.50;99.90;;;;;;5029397;28;21140;-69
2022/01/15 09:07:18;;;;;;;61.80;39.00;;;2.60;99.90;;;;;;5030917;28;20543;-68
2022/01/15 09:09:46;;;;;;;82.03;40.17;;;2.50;99.90;;;;;;5030634;28;20901;-69
2022/01/15 09:12:13;;;;;;;63.90;41.90;;;2.60;99.90;;;;;;5031401;28;20901;-69
2022/01/15 09:14:40;;;;;;;72.90;41.40;;;2.60;99.90;;;;;;5030234;28;20547;-69
2022/01/15 09:17:07;;;;;;;64.30;40.70;;;2.60;99.90;;;;;;5030436;28;20460;-68
2022/01/15 09:19:35;;;;;;;64.67;39.90;;;2.70;99.90;;;;;;5051941;28;20513;-68
2022/01/15 09:22:05;;;;;;;63.17;38.00;;;2.70;99.90;;;;;;5045898;28;20962;-68
2022/01/15 09:24:33;;;;;;;66.47;37.53;;;2.60;99.90;;;;;;5030655;28;20562;-69
2022/01/15 09:30:11;;;;;;;66.37;39.77;;;2.70;99.90;;;;;;5022299;28;20462;-69
2022/01/15 09:32:33;;;;;;;63.70;40.93;;;2.70;99.90;;;;;;5027371;28;20570;-69
2022/01/15 09:35:00;;;;;;;65.17;37.33;;;2.70;99.90;;;;;;5027625;28;20455;-69
2022/01/15 09:37:27;;;;;;;58.37;35.60;;;2.80;99.90;;;;;;5026871;28;20463;-69
2022/01/15 09:39:54;;;;;;;56.73;36.03;;;2.80;99.90;;;;;;5027774;28;20459;-69
2022/01/15 09:42:24;;;;;;;66.53;37.33;;;3.00;99.90;;;;;;5026984;28;20859;-69
2022/01/15 09:44:51;;;;;;;63.07;38.37;;;2.90;99.90;;;;;;5027819;28;20515;-69
2022/01/15 09:47:20;;;;;;;59.60;38.47;;;2.90;99.90;;;;;;5027224;28;20472;-69
2022/01/15 09:49:47;;;;;;;65.87;38.90;;;2.90;99.90;;;;;;5030614;28;20525;-69
2022/01/15 09:52:14;;;;;;;59.17;36.27;;;3.00;99.90;;;;;;5029131;28;20470;-69
2022/01/15 09:54:41;;;;;;;59.40;38.83;;;3.20;99.90;;;;;;5029945;28;20807;-69
2022/01/15 09:57:08;;;;;;;68.70;39.47;;;3.20;99.90;;;;;;5030918;28;20471;-69
2022/01/15 09:59:36;;;;;;;66.97;38.43;;;3.30;99.90;;;;;;5030223;28;20495;-69
2022/01/15 10:02:05;;;;;;;59.77;39.77;;;3.30;99.90;;;;;;5029462;28;20886;-69
2022/01/15 10:04:32;;;;;;;60.97;37.60;;;3.30;99.90;;;;;;5029585;28;20494;-69
2022/01/15 10:07:10;;;;;;;65.40;37.03;;;3.30;99.90;;;;;;5030094;28;21738;-70
2022/01/15 10:09:38;;;;;;;52.47;36.23;;;3.40;99.90;;;;;;5031059;28;20459;-69
2022/01/15 10:12:06;;;;;;;64.10;38.60;;;3.50;99.90;;;;;;5030653;28;20503;-69
2022/01/15 10:14:34;;;;;;;59.53;36.90;;;3.70;99.90;;;;;;5031044;28;20458;-69
2022/01/15 10:17:05;;;;;;;67.97;39.50;;;3.60;99.90;;;;;;5029729;28;20470;-69
2022/01/15 10:19:34;;;;;;;58.13;37.10;;;3.60;99.90;;;;;;5029838;28;20712;-69
2022/01/15 10:22:12;;;;;;;54.10;35.40;;;3.50;99.90;;;;;;5030325;28;20466;-69
2022/01/15 10:24:40;;;;;;;55.20;36.20;;;3.60;99.90;;;;;;5030764;28;21090;-69
2022/01/15 10:27:23;;;;;;;54.33;35.83;;;3.70;99.90;;;;;;5029205;28;20443;-69
2022/01/15 10:30:02;;;;;;;55.37;34.60;;;3.60;99.90;;;;;;5030062;28;20486;-69
2022/01/15 10:32:32;;;;;;;63.40;35.27;;;3.60;99.90;;;;;;5031799;28;20459;-69
2022/01/15 10:35:00;;;;;;;54.77;36.47;;;3.60;99.90;;;;;;5033285;28;20476;-69
2022/01/15 10:37:34;;;;;;;53.97;36.00;;;3.60;99.90;;;;;;5029988;28;20489;-69
2022/01/15 10:40:06;;;;;;;58.20;36.80;;;3.60;99.90;;;;;;5032141;28;20576;-69
2022/01/15 10:42:34;;;;;;;63.20;38.77;;;3.70;99.90;;;;;;5033534;28;20499;-68
2022/01/15 10:45:07;;;;;;;52.37;36.13;;;3.60;99.90;;;;;;5035584;28;20472;-68
2022/01/15 10:47:42;;;;;;;54.60;35.17;;;3.60;99.90;;;;;;5054961;28;20964;-69
2022/01/15 10:50:10;;;;;;;67.57;40.00;;;3.70;99.90;;;;;;5033390;28;20466;-69
2022/01/15 10:52:37;;;;;;;53.50;36.57;;;3.70;99.90;;;;;;5056625;28;20872;-69
2022/01/15 10:55:09;;;;;;;56.93;37.40;;;3.60;99.90;;;;;;5030129;28;20843;-69
2022/01/15 10:57:38;;;;;;;65.43;37.07;;;3.70;99.90;;;;;;5031187;28;20482;-69
2022/01/15 11:00:19;;;;;;;62.87;38.57;;;3.70;99.90;;;;;;5022331;28;20926;-69
2022/01/15 11:02:50;;;;;;;57.17;38.10;;;3.80;99.90;;;;;;5031683;28;20640;-69
2022/01/15 11:05:39;;;;;;;63.90;37.87;;;3.90;99.90;;;;;;5032278;28;20459;-69
2022/01/15 11:08:13;;;;;;;59.37;38.73;;;3.90;99.90;;;;;;5033346;28;20463;-69
2022/01/15 11:10:42;;;;;;;60.20;37.30;;;4.10;99.90;;;;;;5040175;28;20872;-69
2022/01/15 11:13:11;;;;;;;59.63;38.23;;;4.10;99.90;;;;;;5051127;28;20582;-69
2022/01/15 11:15:39;;;;;;;67.50;39.10;;;4.10;99.90;;;;;;5056045;28;20517;-68
2022/01/15 11:18:09;;;;;;;63.30;41.00;;;4.10;99.90;;;;;;5050786;28;20471;-69
2022/01/15 11:20:37;;;;;;;68.40;38.27;;;4.20;99.90;;;;;;5035983;28;20469;-69
2022/01/15 11:23:04;;;;;;;56.40;37.97;;;4.00;99.90;;;;;;5029074;28;20961;-69
2022/01/15 11:25:31;;;;;;;62.23;39.20;;;4.10;99.90;;;;;;5032378;28;20464;-69
2022/01/15 11:27:59;;;;;;;57.37;39.20;;;4.00;99.90;;;;;;5032835;28;20455;-69
2022/01/15 11:30:27;;;;;;;58.43;38.30;;;4.10;99.90;;;;;;5025087;28;21273;-69
2022/01/15 11:32:54;;;;;;;60.13;41.53;;;4.20;99.90;;;;;;5031882;28;20650;-69
2022/01/15 11:35:38;;;;;;;61.43;40.43;;;4.40;99.90;;;;;;5033475;28;21057;-69
2022/01/15 11:38:06;;;;;;;54.67;38.67;;;4.40;99.90;;;;;;5032801;28;20475;-69
2022/01/15 11:40:39;;;;;;;63.53;39.80;;;4.50;99.90;;;;;;5030037;28;20472;-69
2022/01/15 11:43:42;;;;;;;60.33;38.30;;;4.60;99.90;;;;;;5033215;28;20468;-70
2022/01/15 11:46:29;;;;;;;61.37;41.50;;;4.60;99.90;;;;;;5033116;28;20554;-69
2022/01/15 11:49:34;;;;;;;57.37;39.97;;;4.60;99.90;;;;;;5032038;28;21085;-70
2022/01/15 11:52:43;;;;;;;63.23;38.07;;;4.60;99.90;;;;;;5032234;28;20609;-69
2022/01/15 11:55:24;;;;;;;60.23;38.87;;;4.60;99.90;;;;;;5025298;28;20493;-69
2022/01/15 11:57:53;;;;;;;63.13;40.80;;;4.70;99.90;;;;;;5031256;28;20497;-69
2022/01/15 12:00:26;;;;;;;63.40;39.53;;;4.70;99.90;;;;;;5028012;28;20492;-69
2022/01/15 12:03:14;;;;;;;61.10;39.70;;;4.70;99.90;;;;;;5030054;28;21067;-69
2022/01/15 12:05:58;;;;;;;56.23;39.57;;;4.60;99.90;;;;;;5036344;28;20976;-69
2022/01/15 12:08:30;;;;;;;58.77;39.00;;;4.60;99.90;;;;;;5053518;28;20581;-68
2022/01/15 12:11:00;;;;;;;59.60;38.93;;;4.70;99.90;;;;;;5053049;28;20629;-69
2022/01/15 12:13:29;;;;;;;56.37;37.87;;;4.80;99.90;;;;;;5052662;28;20532;-69
2022/01/15 12:16:37;;;;;;;58.07;37.87;;;4.80;99.90;;;;;;5031990;28;20901;-69
2022/01/15 12:19:06;;;;;;;51.30;35.77;;;4.50;99.90;;;;;;5029687;28;21016;-69
2022/01/15 12:21:54;;;;;;;54.83;36.07;;;4.50;99.90;;;;;;5029076;28;20467;-69
2022/01/15 12:24:44;;;;;;;57.80;36.97;;;4.30;99.90;;;;;;5031021;28;20545;-69
2022/01/15 12:27:15;;;;;;;51.40;36.97;;;4.50;99.90;;;;;;5050758;28;20804;-69
2022/01/15 12:29:43;;;;;;;48.37;36.33;;;4.60;99.90;;;;;;5050573;28;20468;-69
2022/01/15 12:32:11;;;;;;;58.40;39.80;;;4.70;99.90;;;;;;5043126;28;20469;-70
2022/01/15 12:34:39;;;;;;;77.93;37.40;;;4.70;99.90;;;;;;5032035;28;20847;-69
2022/01/15 12:37:12;;;;;;;61.97;39.70;;;4.80;99.90;;;;;;5032093;28;21187;-69
2022/01/15 12:39:40;;;;;;;52.23;38.50;;;4.80;99.90;;;;;;5031878;28;20484;-69
2022/01/15 12:42:10;;;;;;;54.33;39.40;;;4.90;99.90;;;;;;5032092;28;20802;-69
2022/01/15 12:44:46;;;;;;;56.67;38.83;;;5.00;99.90;;;;;;5031192;28;20460;-69
2022/01/15 12:47:14;;;;;;;57.87;40.30;;;5.00;99.90;;;;;;5031506;28;20462;-70
2022/01/15 12:49:43;;;;;;;62.30;40.23;;;4.90;99.90;;;;;;5028135;28;20476;-69
2022/01/15 12:52:15;;;;;;;56.33;40.30;;;4.90;99.90;;;;;;5027261;28;20470;-69
2022/01/15 12:54:42;;;;;;;66.57;39.40;;;5.00;99.90;;;;;;5029003;28;20710;-69
2022/01/15 12:57:10;;;;;;;58.10;39.13;;;5.20;99.90;;;;;;5036322;28;21030;-69